Time;durP1;ratioP1;P1;durP2;ratioP2;P2;SDS_P1;SDS_P2;PMS_P1;PMS_P2;Temp;Humidity;BMP_temperature;BMP_pressure;BME280_temperature;BME280_humidity;BME280_pressure;Samples;Min_cycle;Max_cycle;Signal;HPM_P1;HPM_P2
2021/01/24 00:02:21;;;;;;;2.83;2.63;;;;;;;;;;5052612;28;20577;-75
2021/01/24 00:04:47;;;;;;;2.33;1.75;;;;;;;;;;5052617;28;20407;-74
2021/01/24 00:07:13;;;;;;;1.80;1.70;;;;;;;;;;5054930;28;20229;-73
2021/01/24 00:09:42;;;;;;;1.80;1.70;;;;;;;;;;5056984;28;20181;-74
2021/01/24 00:12:08;;;;;;;1.80;1.70;;;;;;;;;;5057099;28;20913;-75
2021/01/24 00:14:34;;;;;;;1.73;1.27;;;;;;;;;;5056718;28;20172;-74
2021/01/24 00:17:00;;;;;;;1.92;1.52;;;;;;;;;;5056506;28;20253;-74
2021/01/24 00:19:26;;;;;;;2.13;1.53;;;;;;;;;;5056712;28;20176;-74
2021/01/24 00:21:55;;;;;;;1.33;1.23;;;;;;;;;;5056669;28;20795;-75
2021/01/24 00:24:21;;;;;;;1.70;1.60;;;;;;;;;;5038174;28;20200;-74
2021/01/24 00:26:47;;;;;;;2.40;1.87;;;;;;;;;;5056441;28;20226;-75
2021/01/24 00:29:14;;;;;;;1.70;1.60;;;;;;;;;;5056052;28;20778;-74
2021/01/24 00:31:40;;;;;;;2.10;1.55;;;;;;;;;;5056297;28;20631;-75
2021/01/24 00:34:06;;;;;;;1.60;1.50;;;;;;;;;;5056406;28;20196;-74
2021/01/24 00:36:37;;;;;;;1.33;1.23;;;;;;;;;;5056134;28;20976;-74
2021/01/24 00:39:04;;;;;;;1.60;1.50;;;;;;;;;;5056087;28;20172;-75
2021/01/24 00:44:34;;;;;;;2.92;2.17;;;;;;;;;;5055721;28;20225;-75
2021/01/24 00:47:00;;;;;;;2.33;2.07;;;;;;;;;;5056124;28;20255;-74
2021/01/24 00:49:26;;;;;;;1.90;1.80;;;;;;;;;;5055956;28;20425;-74
2021/01/24 00:54:56;;;;;;;1.50;1.40;;;;;;;;;;5055841;28;20183;-75
2021/01/24 00:57:22;;;;;;;2.40;2.20;;;;;;;;;;5055669;28;20550;-74
2021/01/24 00:59:48;;;;;;;2.30;2.10;;;;;;;;;;5055078;28;20608;-74
2021/01/24 01:02:15;;;;;;;2.00;1.80;;;;;;;;;;5055811;28;20169;-75
2021/01/24 01:04:41;;;;;;;1.63;1.50;;;;;;;;;;5055581;28;20175;-74
2021/01/24 01:10:10;;;;;;;1.95;1.75;;;;;;;;;;5055447;28;20473;-75
2021/01/24 01:12:36;;;;;;;1.60;1.50;;;;;;;;;;5055558;28;20161;-74
2021/01/24 01:15:13;;;;;;;;;;;;;;;;;;;;;
2021/01/24 01:17:42;;;;;;;2.00;1.80;;;;;;;;;;5054582;28;20515;-75
2021/01/24 01:20:12;;;;;;;2.42;2.22;;;;;;;;;;5055127;28;20238;-74
2021/01/24 01:25:41;;;;;;;2.03;1.90;;;;;;;;;;5049957;28;20218;-75
2021/01/24 01:28:07;;;;;;;3.03;2.27;;;;;;;;;;5037129;28;20173;-74
2021/01/24 01:30:33;;;;;;;1.48;1.20;;;;;;;;;;5055015;28;20829;-74
2021/01/24 01:32:59;;;;;;;2.13;1.92;;;;;;;;;;5055197;28;20262;-75
2021/01/24 01:35:28;;;;;;;2.53;2.33;;;;;;;;;;5055319;28;20311;-74
2021/01/24 01:40:58;;;;;;;1.40;1.30;;;;;;;;;;5055182;28;20259;-74
2021/01/24 01:43:24;;;;;;;3.40;1.93;;;;;;;;;;5054978;28;20204;-76
2021/01/24 01:45:50;;;;;;;1.80;1.70;;;;;;;;;;5037309;28;20912;-74
2021/01/24 01:48:16;;;;;;;1.70;1.60;;;;;;;;;;5054984;28;20167;-79
2021/01/24 01:50:42;;;;;;;1.42;1.35;;;;;;;;;;5055025;28;20773;-76
2021/01/24 01:56:12;;;;;;;1.65;1.40;;;;;;;;;;5054864;28;20570;-74
2021/01/24 01:58:41;;;;;;;1.35;1.25;;;;;;;;;;5054017;28;20168;-73
2021/01/24 02:01:28;;;;;;;1.00;0.93;;;;;;;;;;5054360;28;20184;-74
2021/01/24 02:04:14;;;;;;;1.52;1.33;;;;;;;;;;5054452;28;20615;-73
2021/01/24 02:06:43;;;;;;;1.10;1.00;;;;;;;;;;5054314;28;20211;-74
2021/01/24 02:12:13;;;;;;;1.23;0.60;;;;;;;;;;5054688;28;20173;-75
2021/01/24 02:14:42;;;;;;;0.63;0.63;;;;;;;;;;5053835;28;20268;-76
2021/01/24 02:17:13;;;;;;;1.20;0.82;;;;;;;;;;5054023;28;20216;-75
2021/01/24 02:19:55;;;;;;;0.63;0.63;;;;;;;;;;5053923;28;20263;-75
2021/01/24 02:22:23;;;;;;;0.60;0.60;;;;;;;;;;5035850;28;20195;-73
2021/01/24 02:28:15;;;;;;;0.57;0.57;;;;;;;;;;5054257;28;20293;-74
2021/01/24 02:30:48;;;;;;;1.05;0.50;;;;;;;;;;5053485;28;20173;-74
2021/01/24 02:33:20;;;;;;;0.60;0.30;;;;;;;;;;5053945;28;20592;-73
2021/01/24 02:35:52;;;;;;;0.40;0.40;;;;;;;;;;5053863;28;20196;-74
2021/01/24 02:38:19;;;;;;;0.30;0.25;;;;;;;;;;5053973;28;20204;-74
2021/01/24 02:40:48;;;;;;;0.30;0.30;;;;;;;;;;5053943;28;20534;-73
2021/01/24 02:43:15;;;;;;;0.60;0.30;;;;;;;;;;5053856;28;20196;-74
2021/01/24 02:45:45;;;;;;;0.50;0.40;;;;;;;;;;5053996;28;20164;-75
2021/01/24 02:48:15;;;;;;;0.38;0.38;;;;;;;;;;5054077;28;20176;-75
2021/01/24 02:50:44;;;;;;;0.30;0.30;;;;;;;;;;5053408;28;20618;-73
2021/01/24 02:53:14;;;;;;;0.50;0.32;;;;;;;;;;5053778;28;20195;-74
2021/01/24 02:55:40;;;;;;;0.40;0.40;;;;;;;;;;5052857;28;20564;-75
2021/01/24 02:58:09;;;;;;;0.40;0.40;;;;;;;;;;5053437;28;20647;-74
2021/01/24 03:00:35;;;;;;;1.40;0.40;;;;;;;;;;5053209;28;20225;-75
2021/01/24 03:03:04;;;;;;;0.50;0.38;;;;;;;;;;5053569;28;20172;-74
2021/01/24 03:05:30;;;;;;;0.40;0.40;;;;;;;;;;5053553;28;20160;-74
2021/01/24 03:07:56;;;;;;;0.60;0.40;;;;;;;;;;5053195;28;20555;-75
2021/01/24 03:13:37;;;;;;;0.50;0.40;;;;;;;;;;5053119;28;20234;-75
2021/01/24 03:16:03;;;;;;;0.52;0.52;;;;;;;;;;5053375;28;20208;-75
2021/01/24 03:18:31;;;;;;;0.63;0.63;;;;;;;;;;5053066;28;20177;-74
2021/01/24 03:20:58;;;;;;;0.95;0.90;;;;;;;;;;5053434;28;20230;-74
2021/01/24 03:23:24;;;;;;;1.05;0.85;;;;;;;;;;5053227;28;20252;-75
2021/01/24 03:25:50;;;;;;;3.70;1.05;;;;;;;;;;5052802;28;20164;-74
2021/01/24 03:28:17;;;;;;;0.57;0.57;;;;;;;;;;5052400;28;20180;-74
2021/01/24 03:30:42;;;;;;;1.05;0.90;;;;;;;;;;5052856;28;20410;-74
2021/01/24 03:33:09;;;;;;;1.53;1.10;;;;;;;;;;5053074;28;20180;-74
2021/01/24 03:35:35;;;;;;;0.70;0.70;;;;;;;;;;5052804;28;20407;-74
2021/01/24 03:38:01;;;;;;;0.80;0.80;;;;;;;;;;5053163;28;20179;-75
2021/01/24 03:43:30;;;;;;;1.10;0.75;;;;;;;;;;5052963;28;20175;-75
2021/01/24 03:45:56;;;;;;;1.53;1.43;;;;;;;;;;5052748;28;20168;-74
2021/01/24 03:48:22;;;;;;;1.60;1.50;;;;;;;;;;5052879;28;20477;-74
2021/01/24 03:50:48;;;;;;;1.80;1.33;;;;;;;;;;5052572;28;20802;-74
2021/01/24 03:53:14;;;;;;;1.70;1.10;;;;;;;;;;5052649;28;20419;-74
2021/01/24 03:58:43;;;;;;;1.73;1.55;;;;;;;;;;5052017;28;20410;-73
2021/01/24 04:01:09;;;;;;;3.43;1.80;;;;;;;;;;5052088;28;20172;-74
2021/01/24 04:03:35;;;;;;;2.20;1.77;;;;;;;;;;5052646;28;20411;-74
2021/01/24 04:06:01;;;;;;;3.67;1.70;;;;;;;;;;5052496;28;20888;-74
2021/01/24 04:08:27;;;;;;;1.58;1.48;;;;;;;;;;5052386;28;20572;-74
2021/01/24 04:13:57;;;;;;;1.55;1.45;;;;;;;;;;5052428;28;20413;-74
2021/01/24 04:16:23;;;;;;;2.45;2.00;;;;;;;;;;5052280;28;20218;-74
2021/01/24 04:18:49;;;;;;;2.78;1.98;;;;;;;;;;5052375;28;20160;-74
2021/01/24 04:21:15;;;;;;;2.00;1.63;;;;;;;;;;5052410;28;20168;-74
2021/01/24 04:23:41;;;;;;;3.40;2.20;;;;;;;;;;5052394;28;20482;-75
2021/01/24 04:29:11;;;;;;;2.35;2.15;;;;;;;;;;5051787;28;20509;-75
2021/01/24 04:31:37;;;;;;;2.38;2.00;;;;;;;;;;5052601;28;20226;-75
2021/01/24 04:34:03;;;;;;;2.53;1.87;;;;;;;;;;5052306;28;20622;-75
2021/01/24 04:36:29;;;;;;;2.53;1.90;;;;;;;;;;5052207;28;20457;-75
2021/01/24 04:38:55;;;;;;;3.93;1.80;;;;;;;;;;5052112;28;20248;-75
2021/01/24 04:44:25;;;;;;;4.25;1.77;;;;;;;;;;5052390;28;20211;-75
2021/01/24 04:46:51;;;;;;;1.95;1.58;;;;;;;;;;5051839;28;20183;-73
2021/01/24 04:49:17;;;;;;;2.60;1.75;;;;;;;;;;5052259;28;20506;-74
2021/01/24 04:51:43;;;;;;;3.17;1.58;;;;;;;;;;5052425;28;20179;-74
2021/01/24 04:54:09;;;;;;;2.08;1.88;;;;;;;;;;5055570;28;20177;-74
2021/01/24 04:56:38;;;;;;;2.42;1.85;;;;;;;;;;5055562;28;20208;-74
2021/01/24 04:59:04;;;;;;;2.58;1.80;;;;;;;;;;5055324;28;20201;-74
2021/01/24 05:01:31;;;;;;;1.77;1.67;;;;;;;;;;5055671;28;20580;-74
2021/01/24 05:03:57;;;;;;;3.30;2.28;;;;;;;;;;5037647;28;20622;-74
2021/01/24 05:06:23;;;;;;;2.47;1.80;;;;;;;;;;5055492;28;20160;-74
2021/01/24 05:08:49;;;;;;;2.13;1.73;;;;;;;;;;5055353;28;20805;-74
2021/01/24 05:14:19;;;;;;;2.10;1.88;;;;;;;;;;5055661;28;20935;-74
2021/01/24 05:16:48;;;;;;;1.73;1.60;;;;;;;;;;5055344;28;20208;-74
2021/01/24 05:19:15;;;;;;;1.48;1.33;;;;;;;;;;5055796;28;20168;-73
2021/01/24 05:21:41;;;;;;;2.33;1.38;;;;;;;;;;5055316;28;20172;-74
2021/01/24 05:24:08;;;;;;;3.08;1.55;;;;;;;;;;5055236;28;20612;-74
2021/01/24 05:29:41;;;;;;;1.85;1.70;;;;;;;;;;5054843;28;20206;-73
2021/01/24 05:32:08;;;;;;;1.98;1.75;;;;;;;;;;5055260;28;20545;-75
2021/01/24 05:34:34;;;;;;;2.20;1.85;;;;;;;;;;5055106;28;20173;-74
2021/01/24 05:37:01;;;;;;;2.20;1.25;;;;;;;;;;5054979;28;20315;-73
2021/01/24 05:45:37;;;;;;;3.38;1.95;;;;;;;;;;5054774;28;20207;-73
2021/01/24 05:48:05;;;;;;;3.15;2.13;;;;;;;;;;5054768;28;20168;-74
2021/01/24 05:50:34;;;;;;;6.72;2.42;;;;;;;;;;5054580;28;20246;-74
2021/01/24 05:53:03;;;;;;;2.33;2.08;;;;;;;;;;5054998;28;20180;-74
2021/01/24 05:55:33;;;;;;;3.28;2.85;;;;;;;;;;5054450;28;20179;-74
2021/01/24 05:57:59;;;;;;;2.15;1.95;;;;;;;;;;5054877;28;20630;-74
2021/01/24 06:00:26;;;;;;;2.85;2.03;;;;;;;;;;5053866;28;20168;-74
2021/01/24 06:02:53;;;;;;;2.95;2.25;;;;;;;;;;5054793;28;20585;-74
2021/01/24 06:05:19;;;;;;;4.25;2.78;;;;;;;;;;5053648;28;20294;-74
2021/01/24 06:07:45;;;;;;;3.60;2.58;;;;;;;;;;5054413;28;20219;-74
2021/01/24 06:10:11;;;;;;;2.53;2.30;;;;;;;;;;5054225;28;20174;-74
2021/01/24 06:12:39;;;;;;;3.28;2.45;;;;;;;;;;5054415;28;20170;-76
2021/01/24 06:15:05;;;;;;;2.42;2.17;;;;;;;;;;5054409;28;20683;-74
2021/01/24 06:17:35;;;;;;;4.93;2.55;;;;;;;;;;5054174;28;20223;-74
2021/01/24 06:20:03;;;;;;;2.75;2.42;;;;;;;;;;5054244;28;20172;-74
2021/01/24 06:22:35;;;;;;;2.00;1.88;;;;;;;;;;5054308;28;20190;-72
2021/01/24 06:25:03;;;;;;;2.85;2.13;;;;;;;;;;5036307;28;20625;-74
2021/01/24 06:27:33;;;;;;;2.95;2.30;;;;;;;;;;5054061;28;20360;-73
2021/01/24 06:30:01;;;;;;;11.18;2.10;;;;;;;;;;5053239;28;20183;-73
2021/01/24 06:32:28;;;;;;;2.72;1.90;;;;;;;;;;5053961;28;20182;-75
2021/01/24 06:34:55;;;;;;;4.10;2.20;;;;;;;;;;5053958;28;20187;-73
2021/01/24 06:37:25;;;;;;;3.22;2.65;;;;;;;;;;5054164;28;20203;-73
2021/01/24 06:39:53;;;;;;;4.07;2.60;;;;;;;;;;5053866;28;20172;-75
2021/01/24 06:45:22;;;;;;;2.42;2.15;;;;;;;;;;5054176;28;20180;-76
2021/01/24 06:47:48;;;;;;;2.33;2.03;;;;;;;;;;5053789;28;20527;-73
2021/01/24 06:50:35;;;;;;;3.33;2.10;;;;;;;;;;5053938;28;20407;-73
2021/01/24 06:53:08;;;;;;;3.97;2.92;;;;;;;;;;5054044;28;20234;-73
2021/01/24 06:55:36;;;;;;;3.08;2.72;;;;;;;;;;5053568;28;20180;-73
2021/01/24 06:58:21;;;;;;;1.90;1.75;;;;;;;;;;5053460;28;20664;-74
2021/01/24 07:00:46;;;;;;;2.80;1.80;;;;;;;;;;5053505;28;20262;-74
2021/01/24 07:03:19;;;;;;;2.67;2.13;;;;;;;;;;5053685;28;20217;-73
2021/01/24 07:05:45;;;;;;;3.95;2.25;;;;;;;;;;5053578;28;20411;-74
2021/01/24 07:08:30;;;;;;;4.13;2.28;;;;;;;;;;5053634;28;20361;-73
2021/01/24 07:10:56;;;;;;;2.97;2.65;;;;;;;;;;5053045;28;20164;-73
2021/01/24 07:13:25;;;;;;;3.70;2.53;;;;;;;;;;5053338;28;20205;-74
2021/01/24 07:15:59;;;;;;;3.22;2.10;;;;;;;;;;5053074;28;20180;-73
2021/01/24 07:18:25;;;;;;;2.60;2.35;;;;;;;;;;5053409;28;20172;-73
2021/01/24 07:20:52;;;;;;;4.07;1.92;;;;;;;;;;5053221;28;20168;-73
2021/01/24 07:23:18;;;;;;;2.30;2.10;;;;;;;;;;5053100;28;20307;-73
2021/01/24 07:25:45;;;;;;;2.10;1.92;;;;;;;;;;5052953;28;20164;-74
2021/01/24 07:28:12;;;;;;;4.63;2.95;;;;;;;;;;5052541;28;20169;-74
2021/01/24 07:30:41;;;;;;;3.65;2.28;;;;;;;;;;5052885;28;20251;-75
2021/01/24 07:33:07;;;;;;;2.25;2.05;;;;;;;;;;5053080;28;20214;-74
2021/01/24 07:35:37;;;;;;;2.70;2.15;;;;;;;;;;5053042;28;20204;-74
2021/01/24 07:38:03;;;;;;;5.30;2.70;;;;;;;;;;5052966;28;20200;-73
2021/01/24 07:40:29;;;;;;;3.08;1.98;;;;;;;;;;5052972;28;20580;-73
2021/01/24 07:45:58;;;;;;;2.17;1.98;;;;;;;;;;5052656;28;20504;-73
2021/01/24 07:48:25;;;;;;;3.63;1.70;;;;;;;;;;5052625;28;20253;-73
2021/01/24 07:50:51;;;;;;;3.45;2.55;;;;;;;;;;5052695;28;20406;-76
2021/01/24 07:53:17;;;;;;;1.93;1.80;;;;;;;;;;5052594;28;20201;-73
2021/01/24 07:55:43;;;;;;;4.05;3.28;;;;;;;;;;5052440;28;20471;-73
2021/01/24 08:01:14;;;;;;;2.10;1.70;;;;;;;;;;5052740;28;20186;-74
2021/01/24 08:03:40;;;;;;;3.47;2.17;;;;;;;;;;5052342;28;20647;-74
2021/01/24 08:06:07;;;;;;;3.80;2.45;;;;;;;;;;5052641;28;20186;-74
2021/01/24 08:08:37;;;;;;;2.50;2.30;;;;;;;;;;5050469;28;20226;-75
2021/01/24 08:16:53;;;;;;;2.85;2.63;;;;;;;;;;5052300;28;20214;-73
2021/01/24 08:19:20;;;;;;;5.95;2.70;;;;;;;;;;5051961;28;20626;-74
2021/01/24 08:21:47;;;;;;;2.33;2.03;;;;;;;;;;5051981;28;20171;-73
2021/01/24 08:24:13;;;;;;;2.20;2.00;;;;;;;;;;5051925;28;20180;-75
2021/01/24 08:26:40;;;;;;;4.15;2.45;;;;;;;;;;5052355;28;20263;-73
2021/01/24 08:29:07;;;;;;;2.80;2.55;;;;;;;;;;5055032;28;20165;-74
2021/01/24 08:31:34;;;;;;;2.50;2.30;;;;;;;;;;5056038;28;20552;-74
2021/01/24 08:34:00;;;;;;;2.70;2.45;;;;;;;;;;5056378;28;20253;-75
2021/01/24 08:36:27;;;;;;;4.55;1.73;;;;;;;;;;5056329;28;20283;-73
2021/01/24 08:38:56;;;;;;;4.35;2.72;;;;;;;;;;5055962;28;20175;-73
2021/01/24 08:41:27;;;;;;;2.95;2.20;;;;;;;;;;5056093;28;20250;-73
2021/01/24 08:44:02;;;;;;;2.83;2.10;;;;;;;;;;5056004;28;20176;-74
2021/01/24 08:46:28;;;;;;;5.30;2.47;;;;;;;;;;5055440;28;20197;-74
2021/01/24 08:49:00;;;;;;;2.17;1.80;;;;;;;;;;5055761;28;20175;-73
2021/01/24 08:51:37;;;;;;;3.92;2.40;;;;;;;;;;5054659;28;20267;-76
2021/01/24 08:54:12;;;;;;;8.32;3.17;;;;;;;;;;5055532;28;20180;-74
2021/01/24 08:56:38;;;;;;;4.75;3.05;;;;;;;;;;5055045;28;20191;-75
2021/01/24 08:59:19;;;;;;;4.43;2.37;;;;;;;;;;5054308;28;20198;-74
2021/01/24 09:01:48;;;;;;;2.55;1.75;;;;;;;;;;5054796;28;20414;-74
2021/01/24 09:04:34;;;;;;;2.65;2.20;;;;;;;;;;5054880;28;20199;-75
2021/01/24 09:07:00;;;;;;;5.07;2.35;;;;;;;;;;5054811;28;20179;-74
2021/01/24 09:09:26;;;;;;;3.17;2.40;;;;;;;;;;5054331;28;20686;-74
2021/01/24 09:11:52;;;;;;;3.50;2.50;;;;;;;;;;5054894;28;20411;-75
2021/01/24 09:14:18;;;;;;;2.50;2.30;;;;;;;;;;5054762;28;20192;-75
2021/01/24 09:16:44;;;;;;;6.77;3.27;;;;;;;;;;5054284;28;20554;-75
2021/01/24 09:19:10;;;;;;;3.63;3.00;;;;;;;;;;5054451;28;20892;-74
2021/01/24 09:21:36;;;;;;;8.03;2.70;;;;;;;;;;5054947;28;20768;-74
2021/01/24 09:24:02;;;;;;;4.33;2.67;;;;;;;;;;5054893;28;20434;-74
2021/01/24 09:26:28;;;;;;;5.38;2.75;;;;;;;;;;5054899;28;20403;-73
2021/01/24 09:31:57;;;;;;;3.13;2.83;;;;;;;;;;5054856;28;20202;-74
2021/01/24 09:34:23;;;;;;;3.50;3.20;;;;;;;;;;5054752;28;20511;-74
2021/01/24 09:36:49;;;;;;;7.10;3.00;;;;;;;;;;5054722;28;20280;-74
2021/01/24 09:39:15;;;;;;;2.67;2.40;;;;;;;;;;5053364;28;20412;-74
2021/01/24 09:41:41;;;;;;;4.13;2.70;;;;;;;;;;5054783;28;20180;-73
2021/01/24 09:47:11;;;;;;;4.57;3.47;;;;;;;;;;5054609;28;20460;-74
2021/01/24 09:49:37;;;;;;;4.07;2.30;;;;;;;;;;5054578;28;20210;-73
2021/01/24 09:52:03;;;;;;;2.93;2.73;;;;;;;;;;5036625;28;20423;-73
2021/01/24 09:54:29;;;;;;;5.10;2.83;;;;;;;;;;5054357;28;20886;-73
2021/01/24 09:56:55;;;;;;;3.30;2.17;;;;;;;;;;5054372;28;20211;-75
2021/01/24 10:02:24;;;;;;;2.85;1.80;;;;;;;;;;5054110;28;20469;-73
2021/01/24 10:04:50;;;;;;;2.20;2.00;;;;;;;;;;5054011;28;20200;-74
2021/01/24 10:07:16;;;;;;;2.43;2.10;;;;;;;;;;5053813;28;20407;-74
2021/01/24 10:09:42;;;;;;;2.75;1.60;;;;;;;;;;5053790;28;20485;-74
2021/01/24 10:12:08;;;;;;;3.10;2.00;;;;;;;;;;5053884;28;20615;-73
2021/01/24 10:17:38;;;;;;;1.70;1.60;;;;;;;;;;5053671;28;20265;-73
2021/01/24 10:20:04;;;;;;;2.17;1.70;;;;;;;;;;5053767;28;20165;-75
2021/01/24 10:22:30;;;;;;;1.88;1.77;;;;;;;;;;5053901;28;20838;-75
2021/01/24 10:24:56;;;;;;;2.25;1.40;;;;;;;;;;5053769;28;20176;-75
2021/01/24 10:27:22;;;;;;;2.27;2.07;;;;;;;;;;5053887;28;20271;-75
2021/01/24 10:32:51;;;;;;;2.75;1.42;;;;;;;;;;5053875;28;20590;-77
2021/01/24 10:35:17;;;;;;;3.10;1.55;;;;;;;;;;5035714;28;20181;-77
2021/01/24 10:37:47;;;;;;;1.98;1.77;;;;;;;;;;5053545;28;20208;-75
2021/01/24 10:40:13;;;;;;;1.77;1.67;;;;;;;;;;5035824;28;20689;-76
2021/01/24 10:42:40;;;;;;;2.45;1.50;;;;;;;;;;5035862;28;20550;-75
2021/01/24 10:48:10;;;;;;;1.35;1.25;;;;;;;;;;5053661;28;20171;-76
2021/01/24 10:50:36;;;;;;;3.10;1.35;;;;;;;;;;5053173;28;20260;-77
2021/01/24 10:53:02;;;;;;;1.50;1.40;;;;;;;;;;5053613;28;20173;-77
2021/01/24 10:55:28;;;;;;;2.67;2.00;;;;;;;;;;5035238;28;20187;-77
2021/01/24 10:57:54;;;;;;;2.70;1.40;;;;;;;;;;5052469;28;20648;-75
2021/01/24 11:03:24;;;;;;;1.25;1.15;;;;;;;;;;5052913;28;20406;-77
2021/01/24 11:05:50;;;;;;;1.47;1.20;;;;;;;;;;5052972;28;20252;-78
2021/01/24 11:08:19;;;;;;;1.25;1.15;;;;;;;;;;5052645;28;20825;-76
2021/01/24 11:10:45;;;;;;;2.80;1.77;;;;;;;;;;5052752;28;20199;-77
2021/01/24 11:13:11;;;;;;;1.05;0.95;;;;;;;;;;5052668;28;20171;-78
2021/01/24 11:18:40;;;;;;;1.95;1.85;;;;;;;;;;5052921;28;20480;-77
2021/01/24 11:21:06;;;;;;;2.15;1.45;;;;;;;;;;5053026;28;20204;-79
2021/01/24 11:23:35;;;;;;;2.17;1.63;;;;;;;;;;5052989;28;20202;-77
2021/01/24 11:26:01;;;;;;;1.40;1.13;;;;;;;;;;5052556;28;20174;-76
2021/01/24 11:28:27;;;;;;;1.43;1.33;;;;;;;;;;5051996;28;20230;-75
2021/01/24 11:33:56;;;;;;;7.47;1.40;;;;;;;;;;5052898;28;20169;-77
2021/01/24 11:36:22;;;;;;;1.27;1.17;;;;;;;;;;5052639;28;20570;-78
2021/01/24 11:38:51;;;;;;;1.30;1.13;;;;;;;;;;5052403;28;20447;-77
2021/01/24 11:41:17;;;;;;;1.23;1.08;;;;;;;;;;5052473;28;20487;-77
2021/01/24 11:43:45;;;;;;;1.60;1.00;;;;;;;;;;5052459;28;20177;-76
2021/01/24 11:46:11;;;;;;;2.22;1.42;;;;;;;;;;5052542;28;20201;-78
2021/01/24 11:48:37;;;;;;;1.53;1.30;;;;;;;;;;5052561;28;20174;-75
2021/01/24 11:51:04;;;;;;;0.90;0.90;;;;;;;;;;5052474;28;20877;-78
2021/01/24 11:53:30;;;;;;;1.77;1.58;;;;;;;;;;5052611;28;20412;-78
2021/01/24 11:55:56;;;;;;;1.57;1.20;;;;;;;;;;5052357;28;20293;-75
2021/01/24 11:58:22;;;;;;;2.47;1.00;;;;;;;;;;5051942;28;20411;-76
2021/01/24 12:03:54;;;;;;;1.10;1.00;;;;;;;;;;5052105;28;20171;-78
2021/01/24 12:06:20;;;;;;;1.25;1.15;;;;;;;;;;5052276;28;20238;-76
2021/01/24 12:08:46;;;;;;;1.20;1.20;;;;;;;;;;5052176;28;20649;-77
2021/01/24 12:11:13;;;;;;;2.75;1.48;;;;;;;;;;5034235;28;20199;-77
2021/01/24 12:13:39;;;;;;;1.02;0.93;;;;;;;;;;5050852;28;20287;-75
2021/01/24 12:19:09;;;;;;;1.48;1.00;;;;;;;;;;5051208;28;20820;-76
2021/01/24 12:21:35;;;;;;;1.40;1.30;;;;;;;;;;5051770;28;20173;-78
2021/01/24 12:24:04;;;;;;;1.60;1.50;;;;;;;;;;5051865;28;20498;-79
2021/01/24 12:26:30;;;;;;;2.63;1.33;;;;;;;;;;5034076;28;20439;-76
2021/01/24 12:28:55;;;;;;;1.15;1.02;;;;;;;;;;5051933;28;20172;-76
2021/01/24 12:34:25;;;;;;;2.13;1.80;;;;;;;;;;5050082;28;20425;-78
2021/01/24 12:36:51;;;;;;;1.70;1.50;;;;;;;;;;5051515;28;20309;-78
2021/01/24 12:39:17;;;;;;;1.17;0.77;;;;;;;;;;5051216;28;20492;-76
2021/01/24 12:41:43;;;;;;;1.40;1.30;;;;;;;;;;5033644;28;20288;-76
2021/01/24 12:44:09;;;;;;;1.55;1.45;;;;;;;;;;5051638;28;20235;-76
2021/01/24 12:49:42;;;;;;;5.70;1.45;;;;;;;;;;5051663;28;20532;-78
2021/01/24 12:52:08;;;;;;;1.10;1.00;;;;;;;;;;5034045;28;20699;-78
2021/01/24 12:54:34;;;;;;;2.97;1.63;;;;;;;;;;5051457;28;20177;-79
2021/01/24 12:57:02;;;;;;;1.50;1.40;;;;;;;;;;5051266;28;20580;-76
2021/01/24 12:59:28;;;;;;;4.18;1.50;;;;;;;;;;5051460;28;20574;-76
2021/01/24 13:01:54;;;;;;;2.80;1.80;;;;;;;;;;5051516;28;20173;-76
2021/01/24 13:04:21;;;;;;;1.75;1.27;;;;;;;;;;5051621;28;20173;-76
2021/01/24 13:06:47;;;;;;;1.13;0.85;;;;;;;;;;5051894;28;20583;-76
2021/01/24 13:09:13;;;;;;;0.90;0.90;;;;;;;;;;5051298;28;20237;-75
2021/01/24 13:11:40;;;;;;;4.17;1.93;;;;;;;;;;5052093;28;20272;-78
2021/01/24 13:14:06;;;;;;;1.50;1.35;;;;;;;;;;5053890;28;20757;-79
2021/01/24 13:19:36;;;;;;;3.70;1.30;;;;;;;;;;5055566;28;20304;-78
2021/01/24 13:22:02;;;;;;;1.63;1.20;;;;;;;;;;5055264;28;20250;-77
2021/01/24 13:24:28;;;;;;;2.08;1.42;;;;;;;;;;5055079;28;20414;-77
2021/01/24 13:26:55;;;;;;;2.05;1.40;;;;;;;;;;5055050;28;20207;-77
2021/01/24 13:29:21;;;;;;;1.95;1.52;;;;;;;;;;5047257;28;20507;-77
2021/01/24 13:34:50;;;;;;;0.80;0.80;;;;;;;;;;5055162;28;20178;-77
2021/01/24 13:37:16;;;;;;;1.42;1.00;;;;;;;;;;5054191;28;20206;-77
2021/01/24 13:39:43;;;;;;;1.57;1.17;;;;;;;;;;5054758;28;20219;-75
2021/01/24 13:42:09;;;;;;;1.90;1.30;;;;;;;;;;5054516;28;20793;-75
2021/01/24 13:44:35;;;;;;;2.05;1.50;;;;;;;;;;5054741;28;20165;-76
2021/01/24 13:50:05;;;;;;;2.80;1.23;;;;;;;;;;5054742;28;20935;-76
2021/01/24 13:52:32;;;;;;;1.52;1.00;;;;;;;;;;5054617;28;20165;-75
2021/01/24 13:54:58;;;;;;;1.15;1.10;;;;;;;;;;5054567;28;20199;-75
2021/01/24 13:57:24;;;;;;;1.95;1.42;;;;;;;;;;5054502;28;20222;-74
2021/01/24 13:59:50;;;;;;;1.50;1.40;;;;;;;;;;5036859;28;20264;-76
2021/01/24 14:05:20;;;;;;;1.38;1.20;;;;;;;;;;5054529;28;20448;-79
2021/01/24 14:07:45;;;;;;;1.60;1.50;;;;;;;;;;5054459;28;20165;-78
2021/01/24 14:10:12;;;;;;;3.40;2.20;;;;;;;;;;5053985;28;20512;-78
2021/01/24 14:12:41;;;;;;;1.42;1.20;;;;;;;;;;5054483;28;20408;-80
2021/01/24 14:15:07;;;;;;;2.00;1.48;;;;;;;;;;5054100;28;20192;-77
2021/01/24 14:20:37;;;;;;;1.33;1.08;;;;;;;;;;5054284;28;20230;-77
2021/01/24 14:23:05;;;;;;;1.50;1.20;;;;;;;;;;5036358;28;20276;-77
2021/01/24 14:25:31;;;;;;;2.55;1.45;;;;;;;;;;5053364;28;20631;-75
2021/01/24 14:27:57;;;;;;;1.50;1.40;;;;;;;;;;5053825;28;20207;-76
2021/01/24 14:30:24;;;;;;;2.42;1.67;;;;;;;;;;5054508;28;20451;-76
2021/01/24 14:32:50;;;;;;;2.17;1.42;;;;;;;;;;5053984;28;20176;-78
2021/01/24 14:35:17;;;;;;;1.95;1.55;;;;;;;;;;5054485;28;20237;-76
2021/01/24 14:37:43;;;;;;;3.17;1.98;;;;;;;;;;5054045;28;20660;-76
2021/01/24 14:40:09;;;;;;;1.60;1.38;;;;;;;;;;5054024;28;20172;-77
2021/01/24 14:42:35;;;;;;;1.73;1.60;;;;;;;;;;5054406;28;20255;-76
2021/01/24 14:45:01;;;;;;;2.53;1.30;;;;;;;;;;5054173;28;20165;-77
2021/01/24 14:50:30;;;;;;;1.90;1.52;;;;;;;;;;5053793;28;20163;-76
2021/01/24 14:52:56;;;;;;;1.77;1.33;;;;;;;;;;5053813;28;20173;-76
2021/01/24 14:55:22;;;;;;;2.13;1.45;;;;;;;;;;5035851;28;20970;-77
2021/01/24 14:57:52;;;;;;;1.90;1.40;;;;;;;;;;5053439;28;20216;-76
2021/01/24 15:00:18;;;;;;;2.50;2.30;;;;;;;;;;5053471;28;20180;-77
2021/01/24 15:05:48;;;;;;;5.97;1.52;;;;;;;;;;5053781;28;20247;-76
2021/01/24 15:08:15;;;;;;;3.72;1.52;;;;;;;;;;5053393;28;20165;-76
2021/01/24 15:10:41;;;;;;;1.75;1.42;;;;;;;;;;5052741;28;20179;-76
2021/01/24 15:13:09;;;;;;;5.00;1.85;;;;;;;;;;5053089;28;20171;-76
2021/01/24 15:15:34;;;;;;;2.08;1.73;;;;;;;;;;5053327;28;20161;-77
2021/01/24 15:21:04;;;;;;;1.30;1.20;;;;;;;;;;5052588;28;20488;-78
2021/01/24 15:23:30;;;;;;;5.00;1.30;;;;;;;;;;5053149;28;20180;-77
2021/01/24 15:25:56;;;;;;;1.58;1.30;;;;;;;;;;5052920;28;20419;-77
2021/01/24 15:28:22;;;;;;;1.53;1.40;;;;;;;;;;5053199;28;20172;-77
2021/01/24 15:30:48;;;;;;;3.10;1.88;;;;;;;;;;5035368;28;20515;-76
2021/01/24 15:33:14;;;;;;;2.28;1.65;;;;;;;;;;5053429;28;20182;-76
2021/01/24 15:35:40;;;;;;;2.83;1.83;;;;;;;;;;5053163;28;20168;-77
2021/01/24 15:38:06;;;;;;;1.45;1.35;;;;;;;;;;5051891;28;20462;-78
2021/01/24 15:40:32;;;;;;;2.50;1.35;;;;;;;;;;5052687;28;20173;-75
2021/01/24 15:42:58;;;;;;;2.85;1.30;;;;;;;;;;5052953;28;20184;-78
2021/01/24 15:45:24;;;;;;;2.37;1.37;;;;;;;;;;5052699;28;20527;-79
2021/01/24 15:50:53;;;;;;;2.92;2.13;;;;;;;;;;5052898;28;20172;-78
2021/01/24 15:53:21;;;;;;;2.83;2.15;;;;;;;;;;5052797;28;20165;-78
2021/01/24 15:55:47;;;;;;;1.60;1.50;;;;;;;;;;5051955;28;20172;-76
2021/01/24 15:58:13;;;;;;;3.75;2.55;;;;;;;;;;5052524;28;20201;-76
2021/01/24 16:00:39;;;;;;;8.35;4.25;;;;;;;;;;5052648;28;20168;-79
2021/01/24 16:06:08;;;;;;;3.28;2.08;;;;;;;;;;5052615;28;20413;-75
2021/01/24 16:08:34;;;;;;;1.90;1.70;;;;;;;;;;5052485;28;20228;-77
2021/01/24 16:11:01;;;;;;;2.80;2.20;;;;;;;;;;5052074;28;20833;-76
2021/01/24 16:13:28;;;;;;;3.15;2.80;;;;;;;;;;5052742;28;20419;-76
2021/01/24 16:15:53;;;;;;;2.10;1.75;;;;;;;;;;5052699;28;20581;-77
2021/01/24 16:21:23;;;;;;;3.35;2.30;;;;;;;;;;5052259;28;20422;-78
2021/01/24 16:23:49;;;;;;;12.50;2.67;;;;;;;;;;5052275;28;20169;-77
2021/01/24 16:26:16;;;;;;;3.75;2.60;;;;;;;;;;5051983;28;20419;-78
2021/01/24 16:28:42;;;;;;;6.03;2.95;;;;;;;;;;5051945;28;20165;-77
2021/01/24 16:31:08;;;;;;;3.15;2.63;;;;;;;;;;5052127;28;20256;-75
2021/01/24 16:36:38;;;;;;;8.45;6.35;;;;;;;;;;5051953;28;20469;-75
2021/01/24 16:39:05;;;;;;;9.98;6.47;;;;;;;;;;5051989;28;20171;-74
2021/01/24 16:41:31;;;;;;;20.73;10.23;;;;;;;;;;5051971;28;20179;-76
2021/01/24 16:43:57;;;;;;;13.25;6.63;;;;;;;;;;5052000;28;20199;-78
2021/01/24 16:46:23;;;;;;;7.25;3.47;;;;;;;;;;5052049;28;20168;-76
2021/01/24 16:51:52;;;;;;;6.50;3.80;;;;;;;;;;5056016;28;20460;-75
2021/01/24 16:54:18;;;;;;;7.53;3.95;;;;;;;;;;5056172;28;20200;-78
2021/01/24 16:56:44;;;;;;;6.60;3.77;;;;;;;;;;5055885;28;20239;-80
2021/01/24 16:59:10;;;;;;;3.80;3.33;;;;;;;;;;5055854;28;20419;-74
2021/01/24 17:01:36;;;;;;;4.10;2.40;;;;;;;;;;5055841;28;20191;-75
2021/01/24 17:07:06;;;;;;;4.65;3.10;;;;;;;;;;5056032;28;20179;-77
2021/01/24 17:09:32;;;;;;;6.22;3.75;;;;;;;;;;5055271;28;20231;-76
2021/01/24 17:11:58;;;;;;;10.02;5.85;;;;;;;;;;5055432;28;20169;-74
2021/01/24 17:14:24;;;;;;;8.27;6.15;;;;;;;;;;5055747;28;20180;-74
2021/01/24 17:16:50;;;;;;;6.00;4.47;;;;;;;;;;5037328;28;20209;-75